Time;durP1;ratioP1;P1;durP2;ratioP2;P2;SDS_P1;SDS_P2;PMS_P1;PMS_P2;Temp;Humidity;BMP_temperature;BMP_pressure;BME280_temperature;BME280_humidity;BME280_pressure;Samples;Min_cycle;Max_cycle;Signal;HPM_P1;HPM_P2
2023/10/28 00:01:45;;;;;;;1.30;1.30;;;;;;;16.18;81.17;95952.19;5005658;28;20053;-59
2023/10/28 00:04:11;;;;;;;1.48;1.48;;;;;;;16.16;81.04;95920.28;5006038;28;20049;-59
2023/10/28 00:06:39;;;;;;;1.40;1.40;;;;;;;16.41;79.97;95935.25;5024357;28;20053;-56
2023/10/28 00:09:05;;;;;;;1.52;1.52;;;;;;;16.52;78.86;95946.22;5023850;28;20041;-57
2023/10/28 00:11:32;;;;;;;1.50;1.50;;;;;;;16.08;79.18;95896.53;5006520;28;20049;-56
2023/10/28 00:13:59;;;;;;;1.50;1.50;;;;;;;16.22;79.37;95924.94;5023905;28;20064;-56
2023/10/28 00:16:25;;;;;;;1.30;1.30;;;;;;;16.50;78.79;95949.44;5023900;28;20547;-57
2023/10/28 00:18:52;;;;;;;1.50;1.50;;;;;;;16.41;78.88;95963.22;5023732;28;20068;-59
2023/10/28 00:21:21;;;;;;;1.40;1.40;;;;;;;16.41;79.11;95949.22;5006038;28;20164;-56
2023/10/28 00:23:48;;;;;;;1.48;1.48;;;;;;;16.53;78.25;95951.38;5023377;28;20535;-56
2023/10/28 00:26:14;;;;;;;1.50;1.50;;;;;;;16.24;78.51;95919.69;5005549;28;20059;-60
2023/10/28 00:28:41;;;;;;;1.40;1.40;;;;;;;16.39;78.52;95946.09;5023788;28;20045;-54
2023/10/28 00:31:08;;;;;;;1.63;1.63;;;;;;;16.23;78.06;95937.66;5023615;28;20140;-55
2023/10/28 00:33:35;;;;;;;1.50;1.50;;;;;;;15.91;77.80;95865.00;5005912;28;20069;-59
2023/10/28 00:36:09;;;;;;;1.58;1.58;;;;;;;16.40;78.23;95942.09;5023271;28;20054;-57
2023/10/28 00:38:36;;;;;;;1.60;1.60;;;;;;;16.33;77.61;95936.66;5006293;28;20134;-56
2023/10/28 00:41:03;;;;;;;1.60;1.60;;;;;;;16.19;78.26;95920.22;5005791;28;20060;-57
2023/10/28 00:43:32;;;;;;;1.50;1.50;;;;;;;16.29;79.16;95961.09;5023353;28;20068;-59
2023/10/28 00:45:59;;;;;;;1.67;1.67;;;;;;;16.05;80.92;95965.22;5012733;28;20530;-57
2023/10/28 00:48:29;;;;;;;1.33;1.33;;;;;;;16.16;80.36;95965.78;5023757;28;20217;-56
2023/10/28 00:50:57;;;;;;;1.50;1.50;;;;;;;15.54;80.46;95868.19;5024226;28;20072;-57
2023/10/28 00:53:25;;;;;;;1.40;1.40;;;;;;;15.70;80.90;95910.13;5005798;28;20136;-56
2023/10/28 00:55:54;;;;;;;1.42;1.42;;;;;;;15.60;81.96;95910.34;5023693;28;20092;-56
2023/10/28 00:58:22;;;;;;;1.42;1.42;;;;;;;15.47;84.43;95963.25;5023264;28;20108;-57
2023/10/28 01:00:49;;;;;;;1.30;1.30;;;;;;;15.28;86.93;95969.56;5023317;28;20089;-56
2023/10/28 01:03:16;;;;;;;1.10;1.10;;;;;;;15.50;85.78;95973.56;5005584;28;20142;-56
2023/10/28 01:05:44;;;;;;;1.35;1.35;;;;;;;15.47;85.15;95963.25;5023269;28;20093;-56
2023/10/28 01:08:11;;;;;;;1.40;1.40;;;;;;;15.57;84.86;95978.97;5023456;28;20053;-56
2023/10/28 01:10:40;;;;;;;1.50;1.50;;;;;;;15.42;84.88;95960.94;5023316;28;20111;-56
2023/10/28 01:13:06;;;;;;;1.30;1.30;;;;;;;15.72;83.04;95996.25;5026535;28;20061;-58
2023/10/28 01:15:33;;;;;;;1.40;1.40;;;;;;;15.68;82.86;95990.72;5027098;28;20080;-56
2023/10/28 01:18:00;;;;;;;1.48;1.48;;;;;;;14.51;83.14;95826.00;5008917;28;20060;-57
2023/10/28 01:20:27;;;;;;;1.40;1.40;;;;;;;15.61;83.63;95996.47;5026375;28;20057;-59
2023/10/28 01:22:53;;;;;;;1.50;1.50;;;;;;;15.05;83.41;95908.22;5026634;28;20532;-57
2023/10/28 01:25:21;;;;;;;1.33;1.33;;;;;;;15.59;83.41;96004.47;5026402;28;20112;-59
2023/10/28 01:27:48;;;;;;;1.30;1.30;;;;;;;15.61;83.31;96004.84;5026902;28;20056;-56
2023/10/28 01:30:16;;;;;;;1.60;1.60;;;;;;;15.63;83.34;95999.63;5009023;28;20053;-57
2023/10/28 01:32:44;;;;;;;1.40;1.40;;;;;;;15.67;83.04;96000.31;5026787;28;20092;-56
2023/10/28 01:35:15;;;;;;;1.40;1.40;;;;;;;15.60;82.74;96000.44;5026080;28;20472;-56
2023/10/28 01:37:42;;;;;;;1.45;1.45;;;;;;;15.55;82.67;95991.81;5026306;28;20556;-56
2023/10/28 01:40:13;;;;;;;1.40;1.40;;;;;;;15.45;83.21;95987.19;5026274;28;20085;-56
2023/10/28 01:42:41;;;;;;;1.35;1.35;;;;;;;15.62;82.41;95991.66;5025805;28;20076;-56
2023/10/28 01:45:09;;;;;;;1.50;1.50;;;;;;;15.56;82.40;95994.16;5026636;28;20069;-56
2023/10/28 01:47:41;;;;;;;1.30;1.30;;;;;;;14.70;85.52;95959.81;5026553;28;20111;-56
2023/10/28 01:50:11;;;;;;;1.33;1.33;;;;;;;14.66;85.09;95927.63;5026254;28;20062;-56
2023/10/28 01:52:40;;;;;;;1.25;1.25;;;;;;;15.33;84.13;96010.91;5008051;28;20046;-56
2023/10/28 01:55:11;;;;;;;1.33;1.33;;;;;;;15.35;82.64;95994.53;5024660;28;20053;-56
2023/10/28 01:57:39;;;;;;;1.25;1.25;;;;;;;15.35;83.13;96005.69;5026223;28;20903;-57
2023/10/28 02:00:07;;;;;;;1.25;1.25;;;;;;;15.39;83.60;96034.34;5026112;28;20055;-56
2023/10/28 02:02:34;;;;;;;1.40;1.40;;;;;;;15.14;83.88;96000.50;5026426;28;20132;-57
2023/10/28 02:05:01;;;;;;;1.30;1.30;;;;;;;15.29;83.72;96018.56;5007781;28;20132;-57
2023/10/28 02:07:28;;;;;;;1.35;1.35;;;;;;;15.12;84.50;96014.06;5025677;28;20061;-57
2023/10/28 02:09:56;;;;;;;1.45;1.45;;;;;;;14.68;85.39;95972.59;5024048;28;20053;-56
2023/10/28 02:12:22;;;;;;;1.17;1.17;;;;;;;14.64;85.81;95950.34;4998089;28;20500;-57
2023/10/28 02:14:51;;;;;;;1.30;1.30;;;;;;;14.96;86.66;96017.53;5006008;28;20049;-56
2023/10/28 02:17:18;;;;;;;1.20;1.20;;;;;;;14.56;87.18;95970.38;5024508;28;20054;-55
2023/10/28 02:19:46;;;;;;;1.20;1.20;;;;;;;14.87;87.59;96030.44;5025205;28;20045;-55
2023/10/28 02:22:14;;;;;;;1.20;1.20;;;;;;;14.81;88.27;96032.91;5008150;28;20575;-55
2023/10/28 02:24:41;;;;;;;1.17;1.17;;;;;;;14.68;88.64;96022.78;5024935;28;20054;-56
2023/10/28 02:27:09;;;;;;;1.20;1.20;;;;;;;14.86;88.72;96028.84;5025405;28;20061;-55
2023/10/28 02:29:37;;;;;;;1.20;1.20;;;;;;;14.78;88.16;96032.94;5026002;28;20049;-55
2023/10/28 02:32:08;;;;;;;1.40;1.40;;;;;;;14.71;87.43;96028.31;5025488;28;20049;-55
2023/10/28 02:34:36;;;;;;;1.17;1.17;;;;;;;14.66;88.11;96025.19;5025490;28;20049;-57
2023/10/28 02:37:05;;;;;;;1.30;1.30;;;;;;;14.85;86.80;96027.28;5023959;28;20511;-55
2023/10/28 02:39:32;;;;;;;1.10;1.10;;;;;;;14.44;87.10;95968.19;5024945;28;20053;-56
2023/10/28 02:42:00;;;;;;;1.20;1.20;;;;;;;14.74;87.16;96037.81;5025127;28;20061;-56
2023/10/28 02:44:29;;;;;;;1.10;1.10;;;;;;;14.74;86.55;96026.66;5025275;28;20068;-58
2023/10/28 02:46:55;;;;;;;1.20;1.20;;;;;;;14.78;86.15;96041.31;5025232;28;20057;-55
2023/10/28 02:49:22;;;;;;;1.20;1.20;;;;;;;14.85;86.55;96049.59;5007482;28;20073;-56
2023/10/28 02:51:49;;;;;;;1.40;1.40;;;;;;;14.73;86.68;96053.72;5007242;28;20057;-57
2023/10/28 02:54:15;;;;;;;1.25;1.25;;;;;;;14.55;85.77;96014.22;5024610;28;20064;-55
2023/10/28 02:56:42;;;;;;;1.30;1.30;;;;;;;14.52;86.06;96003.09;5025308;28;20488;-56
2023/10/28 02:59:10;;;;;;;1.15;1.15;;;;;;;14.83;85.88;96050.00;5024415;28;20057;-58
2023/10/28 03:01:38;;;;;;;1.20;1.20;;;;;;;14.77;86.05;96060.06;5024824;28;20462;-56
2023/10/28 03:04:06;;;;;;;1.27;1.27;;;;;;;14.73;86.62;96064.88;5023885;28;20440;-55
2023/10/28 03:06:32;;;;;;;1.20;1.20;;;;;;;14.72;86.07;96062.53;5007153;28;20508;-56
2023/10/28 03:08:59;;;;;;;1.20;1.20;;;;;;;14.65;86.20;96062.63;5007127;28;20060;-56
2023/10/28 03:11:26;;;;;;;1.30;1.30;;;;;;;14.63;85.75;96065.06;5025031;28;20128;-56
2023/10/28 03:13:53;;;;;;;1.20;1.20;;;;;;;14.55;85.67;96061.59;5024797;28;20049;-56
2023/10/28 03:16:20;;;;;;;1.20;1.20;;;;;;;14.19;86.23;96006.75;5006820;28;20049;-55
2023/10/28 03:18:47;;;;;;;1.10;1.10;;;;;;;14.49;86.98;96062.47;5024194;28;20351;-56
2023/10/28 03:21:15;;;;;;;1.30;1.30;;;;;;;14.50;86.89;96061.25;5010402;28;20068;-57
2023/10/28 03:23:42;;;;;;;1.15;1.15;;;;;;;14.19;86.56;96012.31;5024214;28;20049;-55
2023/10/28 03:26:09;;;;;;;1.13;1.13;;;;;;;14.56;86.40;96065.94;5023392;28;20073;-57
2023/10/28 03:28:36;;;;;;;1.33;1.33;;;;;;;14.26;86.17;96028.94;5024511;28;20252;-55
2023/10/28 03:31:10;;;;;;;1.35;1.35;;;;;;;14.09;86.45;96008.47;5024605;28;20139;-56
2023/10/28 03:33:38;;;;;;;1.25;1.25;;;;;;;14.38;87.40;96067.41;5007003;28;20081;-55
2023/10/28 03:36:05;;;;;;;1.27;1.27;;;;;;;13.89;87.02;95978.91;5024227;28;20046;-56
2023/10/28 03:38:35;;;;;;;1.10;1.10;;;;;;;14.33;88.06;96063.09;5024408;28;20045;-55
2023/10/28 03:41:06;;;;;;;1.17;1.17;;;;;;;14.18;89.04;96066.44;5024239;28;20050;-55
2023/10/28 03:43:33;;;;;;;1.15;1.15;;;;;;;14.02;88.94;96063.47;5023944;28;20615;-55
2023/10/28 03:46:00;;;;;;;1.20;1.20;;;;;;;14.07;89.03;96063.00;5024042;28;20050;-55
2023/10/28 03:48:28;;;;;;;1.10;1.10;;;;;;;14.08;89.53;96067.38;5024013;28;20100;-55
2023/10/28 03:51:05;;;;;;;1.27;1.27;;;;;;;13.73;89.18;96023.22;5022823;28;20053;-55
2023/10/28 03:53:32;;;;;;;1.10;1.10;;;;;;;13.86;89.59;96071.59;5006586;28;20060;-55
2023/10/28 03:55:59;;;;;;;1.05;1.05;;;;;;;13.87;90.12;96067.59;5024101;28;20053;-57
2023/10/28 03:58:26;;;;;;;1.20;1.20;;;;;;;13.75;91.31;96076.50;5023968;28;20111;-56
2023/10/28 04:00:55;;;;;;;1.10;1.10;;;;;;;13.40;91.90;96031.13;5006387;28;20057;-55
2023/10/28 04:03:23;;;;;;;1.10;1.10;;;;;;;13.54;93.03;96063.59;5023873;28;20053;-55
2023/10/28 04:05:50;;;;;;;1.20;1.20;;;;;;;13.50;93.33;96071.97;5023646;28;20462;-58
2023/10/28 04:08:17;;;;;;;1.00;1.00;;;;;;;13.34;92.84;96046.69;5022811;28;20301;-55
2023/10/28 04:10:45;;;;;;;1.00;1.00;;;;;;;13.28;94.85;96076.16;5023972;28;20045;-56
2023/10/28 04:13:12;;;;;;;1.00;1.00;;;;;;;13.35;95.05;96078.88;5006717;28;20095;-56
2023/10/28 04:15:40;;;;;;;0.98;0.98;;;;;;;13.47;94.32;96094.25;5023707;28;20485;-55
2023/10/28 04:18:08;;;;;;;0.95;0.95;;;;;;;13.08;94.28;96066.81;5023578;28;20447;-55
2023/10/28 04:20:35;;;;;;;1.00;1.00;;;;;;;12.89;96.33;96036.75;5005777;28;20045;-55
2023/10/28 04:23:02;;;;;;;1.00;1.00;;;;;;;13.36;95.08;96111.06;5005719;28;20051;-58
2023/10/28 04:25:29;;;;;;;1.10;1.10;;;;;;;13.38;94.90;96125.34;5023078;28;20498;-57
2023/10/28 04:27:56;;;;;;;1.10;1.10;;;;;;;13.44;93.25;96101.44;5024144;28;20050;-55
2023/10/28 04:30:23;;;;;;;1.00;1.00;;;;;;;13.41;93.23;96102.28;5023437;28;20049;-55
2023/10/28 04:32:52;;;;;;;1.00;1.00;;;;;;;13.51;93.45;96118.06;5005959;28;20084;-56
2023/10/28 04:35:19;;;;;;;1.20;1.20;;;;;;;13.55;93.31;96107.69;5023571;28;20128;-57
2023/10/28 04:37:54;;;;;;;1.00;1.00;;;;;;;13.53;93.42;96114.91;5023676;28;20500;-55
2023/10/28 04:40:21;;;;;;;1.00;1.00;;;;;;;13.60;91.94;96098.13;5023468;28;20050;-59
2023/10/28 04:42:48;;;;;;;1.10;1.10;;;;;;;13.65;91.18;96117.94;5005688;28;20144;-57
2023/10/28 04:45:15;;;;;;;1.10;1.10;;;;;;;13.53;92.24;96121.22;5023159;28;20059;-56
2023/10/28 04:47:42;;;;;;;1.10;1.10;;;;;;;13.53;92.62;96121.22;5026567;28;20076;-57
2023/10/28 04:50:09;;;;;;;1.00;1.00;;;;;;;13.54;92.23;96117.25;5027070;28;20138;-57
2023/10/28 04:52:36;;;;;;;1.20;1.20;;;;;;;13.24;90.68;96086.53;5027599;28;20057;-57
2023/10/28 04:55:03;;;;;;;1.00;1.00;;;;;;;13.58;90.75;96126.34;5027175;28;20079;-59
2023/10/28 04:57:30;;;;;;;0.95;0.95;;;;;;;13.55;91.49;96127.19;5027020;28;20058;-57
2023/10/28 04:59:57;;;;;;;1.10;1.10;;;;;;;13.45;92.36;96125.28;5009306;28;20060;-56
2023/10/28 05:02:23;;;;;;;1.10;1.10;;;;;;;12.54;92.41;96003.69;5009631;28;20045;-57
2023/10/28 05:04:50;;;;;;;1.00;1.00;;;;;;;13.52;92.55;96136.34;5027388;28;20057;-56
2023/10/28 05:07:17;;;;;;;1.00;1.00;;;;;;;13.13;93.60;96091.41;5026703;28;20059;-58
2023/10/28 05:09:43;;;;;;;1.00;1.00;;;;;;;13.65;93.47;96156.91;5009308;28;20477;-55
2023/10/28 05:12:10;;;;;;;1.10;1.10;;;;;;;13.60;93.77;96170.47;5027605;28;20052;-56
2023/10/28 05:14:37;;;;;;;1.00;1.00;;;;;;;13.61;93.72;96183.97;5027037;28;20053;-57
2023/10/28 05:17:05;;;;;;;0.90;0.90;;;;;;;13.63;93.16;96164.88;5026986;28;20544;-56
2023/10/28 05:19:32;;;;;;;1.10;1.10;;;;;;;13.77;92.51;96186.19;5026871;28;20099;-56
2023/10/28 05:22:01;;;;;;;1.10;1.10;;;;;;;13.67;89.97;96193.44;5026725;28;20057;-56
2023/10/28 05:24:29;;;;;;;1.10;1.10;;;;;;;13.69;89.73;96202.19;5026539;28;20138;-56
2023/10/28 05:26:57;;;;;;;0.98;0.98;;;;;;;13.72;89.05;96202.56;4990867;28;20480;-57
2023/10/28 05:29:24;;;;;;;1.10;1.10;;;;;;;13.74;89.29;96208.53;4985472;28;20085;-57
2023/10/28 05:31:51;;;;;;;1.20;1.20;;;;;;;13.73;88.83;96195.78;4986543;28;20838;-56
2023/10/28 05:34:19;;;;;;;1.10;1.10;;;;;;;13.88;89.48;96219.53;4986629;28;20145;-57
2023/10/28 05:36:45;;;;;;;1.10;1.10;;;;;;;13.74;89.30;96208.53;4986487;28;20050;-57
2023/10/28 05:39:12;;;;;;;1.10;1.10;;;;;;;13.83;88.27;96178.22;4985795;28;20050;-58
2023/10/28 05:41:39;;;;;;;1.10;1.10;;;;;;;14.00;89.23;96219.00;4986336;28;20133;-56
2023/10/28 05:44:05;;;;;;;1.10;1.10;;;;;;;13.98;88.12;96174.88;4985785;28;20057;-57
2023/10/28 05:46:32;;;;;;;1.15;1.15;;;;;;;14.32;88.03;96213.94;4985697;28;20050;-57
2023/10/28 05:49:00;;;;;;;1.10;1.10;;;;;;;14.49;88.28;96224.88;4986870;28;20062;-56
2023/10/28 05:51:28;;;;;;;1.25;1.25;;;;;;;14.59;87.30;96220.41;4987058;28;20068;-59
2023/10/28 05:53:54;;;;;;;1.20;1.20;;;;;;;14.56;87.29;96227.59;4987048;28;20054;-57
2023/10/28 05:56:21;;;;;;;1.20;1.20;;;;;;;14.47;87.51;96226.50;4985352;28;20065;-59
2023/10/28 05:58:48;;;;;;;1.00;1.00;;;;;;;14.46;87.21;96205.41;4986871;28;20160;-56
2023/10/28 06:01:15;;;;;;;1.20;1.20;;;;;;;14.79;86.42;96240.84;4986558;28;20490;-56
2023/10/28 06:03:41;;;;;;;1.10;1.10;;;;;;;14.73;86.76;96225.81;4963070;28;20547;-55
2023/10/28 06:06:08;;;;;;;1.20;1.20;;;;;;;14.44;86.37;96144.53;5013762;28;20140;-54
2023/10/28 06:08:36;;;;;;;1.30;1.30;;;;;;;14.97;86.83;96213.50;5018321;28;20051;-55
2023/10/28 06:11:02;;;;;;;1.40;1.40;;;;;;;14.55;85.22;96130.47;5008643;28;20049;-66
2023/10/28 06:13:29;;;;;;;1.20;1.20;;;;;;;15.13;84.58;96196.97;5023556;28;20053;-65
2023/10/28 06:15:56;;;;;;;1.33;1.33;;;;;;;15.47;83.97;96253.50;5020608;28;20045;-67
2023/10/28 06:18:23;;;;;;;1.35;1.35;;;;;;;15.70;84.22;96253.53;5022843;28;20057;-58
2023/10/28 06:20:49;;;;;;;1.55;1.55;;;;;;;16.04;82.12;96259.78;5024236;28;20065;-56
2023/10/28 06:23:16;;;;;;;1.38;1.38;;;;;;;16.29;81.26;96260.13;5024261;28;20148;-70
2023/10/28 06:25:43;;;;;;;1.40;1.40;;;;;;;16.43;80.56;96259.88;4993654;28;20513;-72
2023/10/28 06:28:10;;;;;;;1.50;1.50;;;;;;;16.53;80.00;96264.50;5018356;28;20431;-58
2023/10/28 06:30:48;;;;;;;1.60;1.60;;;;;;;16.66;79.70;96272.28;5009201;28;20124;-68
2023/10/28 06:33:16;;;;;;;1.40;1.40;;;;;;;16.80;79.28;96272.00;5005501;28;20046;-56
2023/10/28 06:35:44;;;;;;;1.60;1.60;;;;;;;16.84;78.54;96272.69;5024714;28;20056;-63
2023/10/28 06:38:10;;;;;;;1.67;1.67;;;;;;;16.86;78.24;96242.28;5023579;28;20049;-65
2023/10/28 06:40:38;;;;;;;1.63;1.63;;;;;;;17.03;76.97;96269.13;5023087;28;20081;-57
2023/10/28 06:43:05;;;;;;;1.50;1.50;;;;;;;17.12;77.13;96284.13;5025180;28;20056;-57
2023/10/28 06:45:31;;;;;;;1.50;1.50;;;;;;;17.22;76.78;96276.72;5016108;28;20080;-56
2023/10/28 06:47:58;;;;;;;1.67;1.67;;;;;;;17.16;76.56;96275.66;5012170;28;20046;-66
2023/10/28 06:50:25;;;;;;;1.75;1.75;;;;;;;16.92;77.99;96296.53;5024723;28;20112;-61
2023/10/28 06:52:52;;;;;;;1.60;1.60;;;;;;;16.48;78.24;96239.84;5023111;28;20041;-59
2023/10/28 06:55:18;;;;;;;1.80;1.80;;;;;;;17.17;77.59;96305.22;5014669;28;20046;-70
2023/10/28 06:57:45;;;;;;;1.42;1.42;;;;;;;17.28;76.70;96311.38;5024348;28;20087;-58
2023/10/28 07:00:16;;;;;;;1.75;1.75;;;;;;;17.37;76.68;96317.19;5025263;28;20463;-59
2023/10/28 07:02:44;;;;;;;1.48;1.48;;;;;;;17.44;76.53;96322.63;5018797;28;20477;-68
2023/10/28 07:05:11;;;;;;;1.80;1.80;;;;;;;17.42;76.76;96319.50;4998570;28;20083;-64
2023/10/28 07:07:39;;;;;;;1.80;1.80;;;;;;;17.63;76.64;96319.03;5022380;28;20060;-69
2023/10/28 07:10:06;;;;;;;1.60;1.60;;;;;;;17.85;76.33;96309.75;4999593;28;20050;-54
2023/10/28 07:12:33;;;;;;;1.67;1.67;;;;;;;18.19;75.60;96323.34;5008375;28;20045;-68
2023/10/28 07:15:00;;;;;;;1.70;1.70;;;;;;;18.13;73.47;96302.66;5003605;28;20128;-69
2023/10/28 07:17:27;;;;;;;1.60;1.60;;;;;;;18.50;73.44;96327.41;5014554;28;20054;-58
2023/10/28 07:19:54;;;;;;;2.00;2.00;;;;;;;18.75;73.36;96338.78;5022951;28;20472;-64
2023/10/28 07:22:22;;;;;;;1.65;1.65;;;;;;;18.56;72.26;96258.31;5014622;28;20524;-65
2023/10/28 07:24:49;;;;;;;2.00;2.00;;;;;;;18.79;70.57;96265.72;5003948;28;20053;-65
2023/10/28 07:27:18;;;;;;;1.70;1.70;;;;;;;19.33;70.30;96331.97;5003915;28;20076;-65
2023/10/28 07:29:44;;;;;;;1.83;1.83;;;;;;;19.39;69.39;96330.19;5023504;28;20088;-55
2023/10/28 07:32:12;;;;;;;1.80;1.80;;;;;;;19.25;68.88;96305.28;5023657;28;20053;-57
2023/10/28 07:34:39;;;;;;;1.92;1.92;;;;;;;19.64;68.53;96331.50;5024057;28;20056;-64
2023/10/28 07:37:06;;;;;;;1.80;1.80;;;;;;;19.41;67.76;96279.97;5024121;28;20102;-65
2023/10/28 07:39:33;;;;;;;2.13;2.13;;;;;;;19.65;67.35;96328.22;5023096;28;20077;-65
2023/10/28 07:42:00;;;;;;;2.15;2.15;;;;;;;19.66;67.99;96337.47;5023854;28;20053;-57
2023/10/28 07:44:27;;;;;;;1.92;1.92;;;;;;;19.76;68.08;96336.38;5022967;28;20054;-64
2023/10/28 07:46:54;;;;;;;2.08;2.08;;;;;;;19.91;67.56;96340.31;5024104;28;20061;-64
2023/10/28 07:49:21;;;;;;;2.00;2.00;;;;;;;19.98;67.48;96337.28;5023742;28;20053;-64
2023/10/28 07:51:48;;;;;;;1.90;1.90;;;;;;;20.16;66.59;96340.34;5023882;28;20138;-57
2023/10/28 07:54:14;;;;;;;1.83;1.83;;;;;;;20.25;65.83;96337.66;5023612;28;20076;-57
2023/10/28 07:56:42;;;;;;;1.88;1.88;;;;;;;20.40;65.70;96338.75;5024678;28;20530;-66
2023/10/28 07:59:09;;;;;;;1.90;1.90;;;;;;;20.56;64.77;96347.06;5003686;28;20059;-66
2023/10/28 08:01:39;;;;;;;1.85;1.85;;;;;;;20.59;64.30;96346.16;5024202;28;20538;-66
2023/10/28 08:04:06;;;;;;;2.22;2.22;;;;;;;20.75;64.24;96355.25;5022411;28;20053;-65
2023/10/28 08:06:34;;;;;;;1.92;1.92;;;;;;;20.77;63.61;96333.06;5022256;28;20055;-65
2023/10/28 08:09:06;;;;;;;2.15;2.15;;;;;;;18.88;63.55;96044.94;5021512;28;20049;-55
2023/10/28 08:11:33;;;;;;;2.10;2.10;;;;;;;20.50;63.42;96304.63;5022638;28;20494;-58
2023/10/28 08:14:00;;;;;;;2.33;2.30;;;;;;;20.44;62.87;96271.88;5021992;28;20056;-56
2023/10/28 08:16:27;;;;;;;2.25;2.25;;;;;;;21.08;62.68;96347.31;5021895;28;20060;-65
2023/10/28 08:18:54;;;;;;;2.25;2.25;;;;;;;21.21;62.65;96359.34;5023069;28;20571;-55
2023/10/28 08:21:22;;;;;;;2.03;2.03;;;;;;;21.37;62.21;96347.84;5024571;28;20049;-65
2023/10/28 08:23:49;;;;;;;2.25;2.25;;;;;;;21.34;60.61;96323.41;5009565;28;20057;-56
2023/10/28 08:26:19;;;;;;;2.00;2.00;;;;;;;21.69;60.64;96353.09;5026964;28;20539;-56
2023/10/28 08:28:52;;;;;;;2.70;2.60;;;;;;;19.62;60.13;96013.66;5027525;28;20137;-56
2023/10/28 08:31:19;;;;;;;;;;;;;;;21.80;60.29;96342.25;5028438;28;20126;-66
2023/10/28 08:33:50;;;;;;;2.30;2.30;;;;;;;21.65;60.74;96343.22;5027172;28;20435;-56
2023/10/28 08:36:17;;;;;;;2.30;2.30;;;;;;;21.52;60.55;96342.50;5027277;28;20049;-64
2023/10/28 08:38:47;;;;;;;2.40;2.33;;;;;;;21.68;60.33;96342.28;5027072;28;20050;-55
2023/10/28 08:41:24;;;;;;;2.15;2.15;;;;;;;21.84;59.00;96345.72;5027597;28;20057;-56
2023/10/28 08:43:53;;;;;;;2.53;2.42;;;;;;;21.88;59.30;96346.38;5027338;28;20061;-55
2023/10/28 08:46:21;;;;;;;2.50;2.40;;;;;;;21.78;58.44;96299.63;5027527;28;20085;-55
2023/10/28 08:48:48;;;;;;;2.72;2.63;;;;;;;22.18;58.42;96342.75;5009141;28;20168;-56
2023/10/28 08:51:20;;;;;;;2.75;2.65;;;;;;;22.35;58.27;96341.25;5010469;28;20046;-56
2023/10/28 08:53:47;;;;;;;3.10;3.00;;;;;;;22.29;58.02;96303.63;5026948;28;20049;-57
2023/10/28 08:56:19;;;;;;;2.70;2.60;;;;;;;22.75;57.23;96346.13;5027012;28;20045;-67
2023/10/28 08:58:50;;;;;;;2.60;2.50;;;;;;;22.86;55.09;96340.84;5026655;28;20491;-57
2023/10/28 09:01:27;;;;;;;2.75;2.65;;;;;;;23.00;55.42;96345.88;5027306;28;20053;-65
2023/10/28 09:04:00;;;;;;;2.88;2.78;;;;;;;23.08;55.48;96355.63;5027176;28;20249;-63
2023/10/28 09:06:28;;;;;;;3.00;2.90;;;;;;;23.24;55.40;96344.78;5027063;28;20483;-63
2023/10/28 09:08:55;;;;;;;2.75;2.65;;;;;;;23.34;54.13;96331.47;5026754;28;20058;-64
2023/10/28 09:11:22;;;;;;;3.40;3.30;;;;;;;23.16;53.41;96270.06;5014670;28;20053;-55
2023/10/28 09:13:49;;;;;;;2.80;2.70;;;;;;;23.14;54.67;96345.25;5018628;28;20480;-56
2023/10/28 09:16:16;;;;;;;2.95;2.85;;;;;;;23.44;54.04;96339.47;5026850;28;20064;-65
2023/10/28 09:18:44;;;;;;;3.13;3.03;;;;;;;23.73;53.51;96330.47;5026433;28;20075;-65
2023/10/28 09:21:12;;;;;;;3.10;3.00;;;;;;;23.30;53.47;96339.34;5026505;28;20053;-64
2023/10/28 09:23:41;;;;;;;2.72;2.63;;;;;;;23.46;52.53;96283.25;5021790;28;20049;-64
2023/10/28 09:26:08;;;;;;;3.10;3.00;;;;;;;23.35;52.78;96259.53;5006319;28;20456;-56
2023/10/28 09:28:42;;;;;;;2.97;2.88;;;;;;;23.16;54.33;96331.41;5016617;28;20527;-64
2023/10/28 09:31:09;;;;;;;2.92;2.83;;;;;;;23.43;54.21;96328.63;5027043;28;20149;-65
2023/10/28 09:33:36;;;;;;;3.08;2.97;;;;;;;23.80;52.63;96324.50;5021958;28;20048;-56
2023/10/28 09:36:05;;;;;;;3.05;2.95;;;;;;;22.27;52.29;96057.78;5019453;28;20133;-58
2023/10/28 09:38:32;;;;;;;3.15;3.05;;;;;;;24.16;52.27;96317.97;5002821;28;20148;-60
2023/10/28 09:41:01;;;;;;;3.03;2.92;;;;;;;24.14;51.33;96290.16;5024340;28;20055;-57
2023/10/28 09:43:31;;;;;;;3.20;3.10;;;;;;;23.72;51.11;96210.13;5023353;28;20063;-59
2023/10/28 09:45:58;;;;;;;3.15;3.05;;;;;;;23.50;50.12;96249.97;4995496;28;20064;-56
2023/10/28 09:48:30;;;;;;;2.95;2.85;;;;;;;24.33;51.15;96307.88;5020443;28;20059;-58
2023/10/28 09:50:58;;;;;;;3.17;3.08;;;;;;;24.34;50.67;96309.44;5004406;28;20050;-67
2023/10/28 09:53:33;;;;;;;3.30;3.20;;;;;;;23.88;50.89;96308.78;5009346;28;20076;-62
2023/10/28 09:56:02;;;;;;;2.83;2.72;;;;;;;23.87;51.23;96318.50;5009865;28;20045;-64
2023/10/28 09:58:42;;;;;;;2.80;2.70;;;;;;;24.10;51.08;96308.56;5012150;28;20072;-61
2023/10/28 10:01:37;;;;;;;3.15;3.05;;;;;;;24.63;49.65;96306.75;5008347;28;20045;-63
2023/10/28 10:04:25;;;;;;;2.92;2.83;;;;;;;24.89;49.50;96313.56;5026167;28;20049;-62
2023/10/28 10:06:52;;;;;;;2.88;2.78;;;;;;;24.79;48.87;96310.00;5026289;28;20057;-63
2023/10/28 10:09:18;;;;;;;3.38;3.28;;;;;;;24.86;48.60;96304.00;5025871;28;20477;-62
2023/10/28 10:11:45;;;;;;;3.35;3.25;;;;;;;25.07;48.37;96297.19;5025773;28;20049;-62
2023/10/28 10:14:13;;;;;;;3.35;3.25;;;;;;;25.11;48.43;96291.34;5026490;28;20049;-62
2023/10/28 10:17:12;;;;;;;3.05;2.95;;;;;;;25.01;48.88;96292.69;5025437;28;20934;-61
2023/10/28 10:19:40;;;;;;;3.40;3.30;;;;;;;25.30;48.34;96282.22;5005517;28;20512;-62
2023/10/28 10:22:08;;;;;;;3.30;3.20;;;;;;;25.55;47.74;96278.06;5005787;28;20050;-62
2023/10/28 10:24:35;;;;;;;3.33;3.22;;;;;;;25.76;47.96;96276.13;5005785;28;20054;-61
2023/10/28 10:27:04;;;;;;;3.28;3.17;;;;;;;25.76;47.36;96279.75;5006110;28;20244;-62
2023/10/28 10:29:42;;;;;;;3.42;3.33;;;;;;;25.94;47.44;96261.75;5005681;28;20562;-62
2023/10/28 10:32:19;;;;;;;3.40;3.30;;;;;;;26.27;46.63;96279.38;5005948;28;20112;-61
2023/10/28 10:34:45;;;;;;;4.00;3.90;;;;;;;25.57;47.26;96232.19;5006390;28;20061;-61
2023/10/28 10:37:25;;;;;;;3.63;3.53;;;;;;;24.95;47.99;96233.06;5005171;28;20140;-61
2023/10/28 10:39:57;;;;;;;3.38;3.28;;;;;;;25.16;48.37;96271.63;5005197;28;20141;-60
2023/10/28 10:42:27;;;;;;;3.38;3.28;;;;;;;25.30;48.01;96259.53;5005646;28;20526;-62
2023/10/28 10:44:55;;;;;;;3.40;3.30;;;;;;;25.14;47.58;96216.69;5004723;28;20050;-62
2023/10/28 10:47:22;;;;;;;3.42;3.33;;;;;;;25.62;47.64;96268.41;5005213;28;20584;-62
2023/10/28 10:49:50;;;;;;;3.40;3.30;;;;;;;25.36;46.68;96216.34;5005446;28;20050;-61
2023/10/28 10:52:18;;;;;;;3.45;3.35;;;;;;;25.91;45.64;96279.78;5005745;28;20621;-61
2023/10/28 10:54:45;;;;;;;3.50;3.40;;;;;;;25.25;46.37;96212.00;5005487;28;20133;-62
2023/10/28 10:57:12;;;;;;;3.33;3.22;;;;;;;25.77;46.28;96269.19;5005451;28;20056;-62
2023/10/28 10:59:39;;;;;;;3.15;3.05;;;;;;;25.84;46.29;96265.97;5005134;28;20509;-62
2023/10/28 11:02:06;;;;;;;3.50;3.40;;;;;;;25.57;46.71;96271.91;5004825;28;20174;-62
2023/10/28 11:04:36;;;;;;;3.40;3.30;;;;;;;25.86;45.96;96254.91;5005124;28;20046;-63
2023/10/28 11:07:04;;;;;;;3.47;3.38;;;;;;;25.98;46.04;96248.94;5005163;28;20054;-62
2023/10/28 11:09:33;;;;;;;3.55;3.45;;;;;;;26.31;45.57;96265.72;5004487;28;20428;-63
2023/10/28 11:12:00;;;;;;;3.63;3.53;;;;;;;26.42;45.28;96257.38;5005280;28;20049;-62
2023/10/28 11:14:26;;;;;;;3.78;3.67;;;;;;;26.69;44.56;96259.88;5007834;28;20152;-62
2023/10/28 11:16:53;;;;;;;3.70;3.60;;;;;;;26.64;44.17;96271.94;5024395;28;20444;-62
2023/10/28 11:19:21;;;;;;;3.47;3.38;;;;;;;26.54;43.96;96259.13;5024752;28;20053;-63
2023/10/28 11:21:48;;;;;;;4.00;3.90;;;;;;;26.45;44.21;96216.63;5024669;28;20061;-61
2023/10/28 11:24:15;;;;;;;4.00;3.90;;;;;;;26.62;42.94;96243.19;5024295;28;20057;-62
2023/10/28 11:26:49;;;;;;;3.67;3.58;;;;;;;26.61;43.08;96253.00;5024173;28;20506;-62
2023/10/28 11:29:19;;;;;;;3.95;3.85;;;;;;;26.58;42.98;96243.44;5024726;28;20065;-62
2023/10/28 11:31:46;;;;;;;3.35;3.25;;;;;;;26.54;42.92;96259.13;5024315;28;20107;-62
2023/10/28 11:34:14;;;;;;;3.75;3.65;;;;;;;26.73;42.99;96243.38;5024034;28;20053;-62
2023/10/28 11:36:41;;;;;;;3.47;3.38;;;;;;;26.89;42.47;96250.59;5009522;28;20049;-62
2023/10/28 11:39:11;;;;;;;3.70;3.60;;;;;;;26.98;42.39;96233.38;5004556;28;20126;-62